Glenwood Springs, CO (81601)

3:07 PM MDT on June 28, 2017 (GMT -0600)
Red Mountain | | Change Station
Active Advisory: Fire Weather Warning

Elev 6184 ft 39.53 °N, 107.33 °W | Updated 9 seconds ago

Clear
Clear
85.8 °F
Feels Like 83 °F
N
3.8
Wind Variable Wind from SSW
Gusts 11.2 mph

Today
High -- | Low -- °F
--% Chance of Precip.
Yesterday
High -- | Low -- °F
Precip. -- in
Pressure 29.63 in
Visibility 10.0 miles
Clouds Clear
Heat Index 83 °F
Dew Point 42 °F
Humidity 21%
Rainfall 0.00 in
Snow Depth Not available.
5:44 AM 8:40 PM
Waxing Crescent, 28% visible
METAR KRIL 282053Z AUTO 23020G34KT 10SM CLR 33/M12 A2988 RMK AO2 PK WND 24034/2049 SLP032 T03331122 56016
Pressure 29.63 in
Visibility 10.0 miles
Clouds Clear
Heat Index 83 °F
Dew Point 42 °F
Humidity 21%
Rainfall 0.00 in
Snow Depth Not available.
5:44 AM 8:40 PM
Waxing Crescent, 28% visible
METAR KRIL 282053Z AUTO 23020G34KT 10SM CLR 33/M12 A2988 RMK AO2 PK WND 24034/2049 SLP032 T03331122 56016

Get Your Daily Forecast Email!

Thanks for signing up!

Be on the lookout for a verification email in your inbox.

You'll start receiving severe weather alerts in your inbox..

×

10-Day Weather Forecast

Almanac

Astronomy

Jun. 28, 2017 Rise Set
Actual Time
Civil Twilight
Nautical Twilight
Astronomical Twilight
Moon
Length of Visible Light
Length of Day
Tomorrow will be .
, % of the Moon is Illuminated

Today's Extremes

State Highs State Lows

Community

WunderPhotos

Category 6

Welcome to Category 6. This is the collective home for Weather Underground's featured writeups by Dr. Jeff Masters (right), Bob Henson (left), Chris Burt, and other regular contributors.

Nearby

Air Quality

  Air Quality AQ Index Pollutant
Not available.

Snow Depth

Station Depth Elevation

Earthquake Activity

City Distance Mag. Time & Date
Minimum magnitude displayed is 2.5.

Coastal Water Temperatures

Place Temperature

Stations

Nearby Weather Stations

Station Location Temp. Windchill Dew Point Humidity Wind Precip. Elev Updated Type
                   

Watches & Warnings

Fire Weather Warning
Issued: 2:58 PM MDT Jun. 28, 2017 – National Weather Service

... Red flag warning remains in effect until 8 PM MDT this evening
for wind and low relative humidity for fire weather zones 201 and
205...

* affected areas... in Colorado, fire weather zone 201 Routt
forecast area and fire weather zone 205 Colorado River
headwaters.

* Winds... west 10 to 20 mph with gusts up to 35 mph.

* Relative humidity... 10 to 15 percent.

* Impacts... fire starts could lead to quickly spreading fires
which could be difficult or impossible to control.

Precautionary/preparedness actions...

A red flag warning means that critical fire weather conditions
are either occurring now, or will shortly. A combination of
strong winds, low relative humidity, and warm temperatures can
contribute to extreme fire behavior.